createdAt,value
2018-08-23T00:01:31.895Z,10.77
2018-08-23T00:04:06.874Z,9.87
2018-08-23T00:06:36.005Z,14.27
2018-08-23T00:09:06.870Z,9.60
2018-08-23T00:11:39.958Z,10.97
2018-08-23T00:14:08.887Z,10.30
2018-08-23T00:16:47.412Z,10.07
2018-08-23T00:19:16.701Z,10.30
2018-08-23T00:21:50.734Z,10.13
2018-08-23T00:24:20.409Z,10.27
2018-08-23T00:26:50.997Z,10.60
2018-08-23T00:29:24.864Z,10.40
2018-08-23T00:31:56.402Z,10.80
2018-08-23T00:34:27.574Z,11.33
2018-08-23T00:36:56.917Z,10.73
2018-08-23T00:39:26.042Z,11.10
2018-08-23T00:41:59.821Z,9.93
2018-08-23T00:44:34.783Z,10.77
2018-08-23T00:47:03.454Z,10.97
2018-08-23T00:49:32.913Z,12.20
2018-08-23T00:52:01.585Z,10.97
2018-08-23T00:54:30.205Z,11.90
2018-08-23T00:56:58.882Z,11.40
2018-08-23T00:59:27.518Z,11.70
2018-08-23T01:02:12.014Z,10.90
2018-08-23T01:04:46.828Z,10.57
2018-08-23T01:07:23.527Z,10.63
2018-08-23T01:09:52.177Z,11.60
2018-08-23T01:12:20.949Z,11.47
2018-08-23T01:14:51.621Z,13.87
2018-08-23T01:17:20.254Z,11.63
2018-08-23T01:19:59.402Z,10.10
2018-08-23T01:22:28.034Z,10.60
2018-08-23T01:24:57.762Z,10.57
2018-08-23T01:27:31.805Z,10.87
2018-08-23T01:30:00.425Z,13.10
2018-08-23T01:32:33.069Z,13.37
2018-08-23T01:35:01.762Z,11.23
2018-08-23T01:37:37.470Z,15.93
2018-08-23T01:40:08.861Z,10.80
2018-08-23T01:42:38.707Z,12.33
2018-08-23T01:45:08.696Z,11.53
2018-08-23T01:48:11.669Z,11.43
2018-08-23T01:50:40.507Z,13.27
2018-08-23T01:53:09.196Z,12.13
2018-08-23T01:55:37.806Z,14.80
2018-08-23T01:58:06.588Z,11.70
2018-08-23T02:00:36.178Z,11.57
2018-08-23T02:03:05.236Z,12.03
2018-08-23T02:05:33.933Z,12.43
2018-08-23T02:08:02.897Z,13.20
2018-08-23T02:10:31.531Z,12.00
2018-08-23T02:13:00.187Z,12.27
2018-08-23T02:15:36.297Z,11.23
2018-08-23T02:18:05.292Z,12.17
2018-08-23T02:20:33.923Z,11.90
2018-08-23T02:23:05.454Z,11.70
2018-08-23T02:25:34.380Z,13.67
2018-08-23T02:28:04.317Z,12.53
2018-08-23T02:30:48.780Z,11.87
2018-08-23T02:33:17.683Z,11.43
2018-08-23T02:36:04.724Z,11.70
2018-08-23T02:38:34.058Z,11.50
2018-08-23T02:41:02.809Z,11.77
2018-08-23T02:43:31.490Z,11.50
2018-08-23T02:46:03.114Z,12.17
2018-08-23T02:48:31.790Z,10.90
2018-08-23T02:51:00.418Z,11.13
2018-08-23T02:53:36.557Z,11.23
2018-08-23T02:56:10.019Z,12.67
2018-08-23T02:59:00.123Z,10.87
2018-08-23T03:01:32.210Z,11.47
2018-08-23T03:04:11.456Z,11.47
2018-08-23T03:06:56.125Z,11.30
2018-08-23T03:09:29.565Z,11.53
2018-08-23T03:11:59.305Z,11.27
2018-08-23T03:14:28.557Z,11.17
2018-08-23T03:17:15.132Z,12.20
2018-08-23T03:20:10.481Z,12.20
2018-08-23T03:22:39.606Z,13.13
2018-08-23T03:25:13.519Z,12.03
2018-08-23T03:27:42.202Z,11.87
2018-08-23T03:30:12.008Z,12.37
2018-08-23T03:32:40.710Z,11.50
2018-08-23T03:35:09.420Z,11.90
2018-08-23T03:37:38.057Z,12.23
2018-08-23T03:40:07.297Z,13.30
2018-08-23T03:42:35.953Z,12.40
2018-08-23T03:45:04.698Z,12.10
2018-08-23T03:47:39.281Z,12.70
2018-08-23T03:50:09.033Z,13.23
2018-08-23T03:52:38.863Z,12.00
2018-08-23T03:55:08.608Z,12.50
2018-08-23T03:57:42.546Z,12.30
2018-08-23T04:00:11.250Z,12.33
2018-08-23T04:02:39.906Z,14.43
2018-08-23T04:05:14.265Z,12.80
2018-08-23T04:07:43.972Z,12.77
2018-08-23T04:10:12.623Z,11.83
2018-08-23T04:12:43.258Z,13.33
2018-08-23T04:15:24.638Z,12.30
2018-08-23T04:17:53.387Z,12.30
2018-08-23T04:20:22.017Z,11.87
2018-08-23T04:22:50.680Z,13.73
2018-08-23T04:25:19.371Z,13.30
2018-08-23T04:27:47.990Z,11.37
2018-08-23T04:30:16.694Z,12.80
2018-08-23T04:32:46.562Z,13.40
2018-08-23T04:35:27.160Z,11.77
2018-08-23T04:37:55.810Z,12.27
2018-08-23T04:40:24.455Z,12.17
2018-08-23T04:42:53.093Z,12.60
2018-08-23T04:45:24.364Z,12.70
2018-08-23T04:48:08.881Z,13.07
2018-08-23T04:50:38.801Z,13.23
2018-08-23T04:53:07.473Z,15.23
2018-08-23T04:55:36.126Z,13.57
2018-08-23T04:58:05.370Z,13.10
2018-08-23T05:00:34.118Z,12.87
2018-08-23T05:03:04.233Z,11.57
2018-08-23T05:05:32.879Z,13.07
2018-08-23T05:08:01.553Z,12.57
2018-08-23T05:10:30.168Z,13.87
2018-08-23T05:12:58.833Z,16.53
2018-08-23T05:15:27.489Z,13.53
2018-08-23T05:17:56.128Z,14.80
2018-08-23T05:20:24.743Z,13.67
2018-08-23T05:22:58.916Z,13.40
2018-08-23T05:25:27.523Z,13.23
2018-08-23T05:28:22.873Z,12.73
2018-08-23T05:30:51.488Z,12.73
2018-08-23T05:33:22.333Z,13.40
2018-08-23T05:35:51.029Z,14.07
2018-08-23T05:38:20.241Z,13.40
2018-08-23T05:41:02.387Z,13.37
2018-08-23T05:43:30.997Z,14.57
2018-08-23T05:45:59.773Z,13.23
2018-08-23T05:48:31.763Z,15.83
2018-08-23T05:51:03.465Z,13.10
2018-08-23T05:53:32.124Z,12.47
2018-08-23T05:56:01.596Z,13.63
2018-08-23T05:58:31.706Z,15.23
2018-08-23T06:01:00.432Z,12.93
2018-08-23T06:03:29.101Z,13.93
2018-08-23T06:05:57.959Z,14.33
2018-08-23T06:08:26.634Z,12.53
2018-08-23T06:11:00.472Z,13.93
2018-08-23T06:13:29.181Z,12.97
2018-08-23T06:15:58.166Z,12.90
2018-08-23T06:18:27.649Z,13.00
2018-08-23T06:20:56.353Z,12.20
2018-08-23T06:23:36.077Z,13.07
2018-08-23T06:26:04.716Z,12.30
2018-08-23T06:28:33.330Z,13.50
2018-08-23T06:31:02.874Z,12.20
2018-08-23T06:33:39.779Z,20.07
2018-08-23T06:36:09.977Z,13.00
2018-08-23T06:38:40.375Z,11.97
2018-08-23T06:41:09.279Z,12.77
2018-08-23T06:43:37.910Z,12.07
2018-08-23T06:46:06.539Z,12.13
2018-08-23T06:48:35.170Z,12.30
2018-08-23T06:51:06.262Z,10.77
2018-08-23T06:53:43.238Z,12.43
2018-08-23T06:56:11.924Z,13.50
2018-08-23T06:58:40.578Z,11.67
2018-08-23T07:01:14.538Z,11.90
2018-08-23T07:03:55.131Z,15.93
2018-08-23T07:06:23.814Z,16.67
2018-08-23T07:08:52.545Z,12.53
2018-08-23T07:11:22.732Z,13.83
2018-08-23T07:13:56.812Z,11.70
2018-08-23T07:16:25.818Z,11.00
2018-08-23T07:18:54.589Z,17.47
2018-08-23T07:21:23.268Z,12.43
2018-08-23T07:23:51.978Z,10.40
2018-08-23T07:26:20.700Z,10.70
2018-08-23T07:28:49.297Z,10.07
2018-08-23T07:31:17.987Z,10.17
2018-08-23T07:33:51.378Z,10.20
2018-08-23T07:36:27.533Z,10.17
2018-08-23T07:38:57.637Z,12.07
2018-08-23T07:41:32.661Z,8.53
2018-08-23T07:44:02.537Z,11.77
2018-08-23T07:46:31.158Z,8.87
2018-08-23T07:48:59.828Z,10.27
2018-08-23T07:51:28.468Z,11.90
2018-08-23T07:54:01.555Z,8.40
2018-08-23T07:56:30.246Z,7.90
2018-08-23T07:58:58.906Z,8.17
2018-08-23T08:01:29.383Z,8.47
2018-08-23T08:03:58.877Z,8.37
2018-08-23T08:06:28.326Z,7.50
2018-08-23T08:08:58.410Z,7.40
2018-08-23T08:11:27.666Z,8.27
2018-08-23T08:14:01.836Z,8.20
2018-08-23T08:16:32.621Z,7.43
2018-08-23T08:19:01.519Z,7.93
2018-08-23T08:21:30.197Z,8.20
2018-08-23T08:24:00.774Z,7.30
2018-08-23T08:26:31.107Z,7.33
2018-08-23T08:28:59.986Z,7.37
2018-08-23T08:31:28.641Z,7.23
2018-08-23T08:34:00.124Z,8.13
2018-08-23T08:36:31.613Z,8.90
2018-08-23T08:39:01.964Z,7.47
2018-08-23T08:41:34.961Z,6.93
2018-08-23T08:44:04.047Z,7.33
2018-08-23T08:46:32.735Z,8.60
2018-08-23T08:49:01.627Z,7.87
2018-08-23T08:51:32.074Z,7.47
2018-08-23T08:54:02.301Z,7.10
2018-08-23T08:56:48.473Z,7.67
2018-08-23T08:59:17.273Z,6.07
2018-08-23T09:01:46.152Z,7.07
2018-08-23T09:04:20.150Z,6.63
2018-08-23T09:06:48.761Z,6.37
2018-08-23T09:09:39.853Z,6.70
2018-08-23T09:12:10.580Z,6.80
2018-08-23T09:14:40.505Z,7.27
2018-08-23T09:17:25.438Z,7.50
2018-08-23T09:20:02.486Z,6.70
2018-08-23T09:23:02.365Z,6.27
2018-08-23T09:25:36.233Z,6.67
2018-08-23T09:28:04.920Z,6.50
2018-08-23T09:30:33.854Z,7.43
2018-08-23T09:33:10.597Z,6.53
2018-08-23T09:35:39.369Z,9.00
2018-08-23T09:38:10.633Z,6.37
2018-08-23T09:40:39.309Z,9.63
2018-08-23T09:43:08.012Z,7.50
2018-08-23T09:45:37.425Z,6.67
2018-08-23T09:48:06.433Z,9.60
2018-08-23T09:50:35.116Z,8.97
2018-08-23T09:53:12.477Z,6.20
2018-08-23T09:55:41.945Z,7.00
2018-08-23T09:58:45.014Z,6.80
2018-08-23T10:01:18.790Z,10.07
2018-08-23T10:03:52.623Z,7.03
2018-08-23T10:06:22.661Z,8.00
2018-08-23T10:09:02.604Z,7.10
2018-08-23T10:11:36.513Z,8.50
2018-08-23T10:14:10.401Z,7.17
2018-08-23T10:16:44.438Z,7.97
2018-08-23T10:19:18.365Z,6.90
2018-08-23T10:21:52.217Z,9.87
2018-08-23T10:24:24.638Z,11.93
2018-08-23T10:26:53.873Z,7.37
2018-08-23T10:29:22.538Z,7.67
2018-08-23T10:31:51.185Z,7.20
2018-08-23T10:34:19.872Z,7.63
2018-08-23T10:36:48.510Z,7.93
2018-08-23T10:39:17.105Z,6.43
2018-08-23T10:41:45.871Z,7.00
2018-08-23T10:44:14.644Z,8.87
2018-08-23T10:46:48.310Z,6.70
2018-08-23T10:49:16.938Z,6.60
2018-08-23T10:51:45.621Z,8.57
2018-08-23T10:54:14.365Z,6.57
2018-08-23T10:56:43.011Z,5.97
2018-08-23T10:59:11.696Z,6.40
2018-08-23T11:01:40.413Z,6.23
2018-08-23T11:04:09.990Z,6.10
2018-08-23T11:06:43.866Z,6.23
2018-08-23T11:09:17.765Z,5.60
2018-08-23T11:11:46.558Z,6.60
2018-08-23T11:14:20.330Z,5.67
2018-08-23T11:16:54.226Z,5.00
2018-08-23T11:19:27.938Z,5.00
2018-08-23T11:21:56.606Z,5.07
2018-08-23T11:24:25.224Z,7.47
2018-08-23T11:26:53.877Z,5.93
2018-08-23T11:29:22.959Z,5.90
2018-08-23T11:31:51.693Z,5.80
2018-08-23T11:34:20.308Z,5.13
2018-08-23T11:36:48.937Z,4.97
2018-08-23T11:39:17.569Z,5.87
2018-08-23T11:41:46.256Z,6.33
2018-08-23T11:44:14.859Z,6.20
2018-08-23T11:46:43.506Z,5.63
2018-08-23T11:49:12.138Z,5.93
2018-08-23T11:51:40.777Z,6.00
2018-08-23T11:54:09.393Z,7.10
2018-08-23T11:56:38.049Z,6.30
2018-08-23T11:59:07.068Z,5.73
2018-08-23T12:01:35.704Z,5.73
2018-08-23T12:04:04.389Z,7.83
2018-08-23T12:06:34.489Z,5.97
2018-08-23T12:09:03.189Z,6.47
2018-08-23T12:11:31.807Z,6.53
2018-08-23T12:14:01.971Z,8.50
2018-08-23T12:16:30.597Z,7.13
2018-08-23T12:18:59.253Z,7.70
2018-08-23T12:21:27.885Z,7.20
2018-08-23T12:23:56.535Z,7.10
2018-08-23T12:26:25.137Z,6.83
2018-08-23T12:28:59.142Z,7.70
2018-08-23T12:31:27.767Z,7.20
2018-08-23T12:33:56.386Z,6.73
2018-08-23T12:36:30.209Z,5.77
2018-08-23T12:39:04.186Z,5.47
2018-08-23T12:41:38.020Z,6.00
2018-08-23T12:44:06.707Z,5.10
2018-08-23T12:46:35.378Z,4.70
2018-08-23T12:49:03.969Z,5.20
2018-08-23T12:51:32.597Z,4.93
2018-08-23T12:54:01.250Z,4.93
2018-08-23T12:56:29.928Z,4.87
2018-08-23T12:58:58.562Z,5.07
2018-08-23T13:01:27.174Z,5.10
2018-08-23T13:03:55.888Z,3.83
2018-08-23T13:06:24.564Z,4.47
2018-08-23T13:08:53.195Z,4.10
2018-08-23T13:11:21.807Z,4.40
2018-08-23T13:13:50.433Z,4.30
2018-08-23T13:16:19.033Z,4.83
2018-08-23T13:18:47.772Z,4.50
2018-08-23T13:21:16.413Z,4.17
2018-08-23T13:23:46.025Z,4.13
2018-08-23T13:26:15.033Z,4.80
2018-08-23T13:28:43.643Z,5.97
2018-08-23T13:31:12.282Z,4.30
2018-08-23T13:33:40.928Z,4.03
2018-08-23T13:36:09.615Z,4.37
2018-08-23T13:38:38.249Z,4.37
2018-08-23T13:41:07.146Z,5.23
2018-08-23T13:43:35.890Z,5.57
2018-08-23T13:46:04.482Z,4.67
2018-08-23T13:48:33.121Z,5.70
2018-08-23T13:51:01.749Z,5.03
2018-08-23T13:53:30.351Z,4.87
2018-08-23T13:55:58.998Z,4.90
2018-08-23T13:58:27.635Z,5.00
2018-08-23T14:00:56.300Z,4.87
2018-08-23T14:03:24.965Z,7.03
2018-08-23T14:06:08.654Z,5.60
2018-08-23T14:08:37.238Z,5.43
2018-08-23T14:11:05.877Z,5.30
2018-08-23T14:13:34.599Z,5.77
2018-08-23T14:16:03.265Z,4.90
2018-08-23T14:18:32.739Z,5.10
2018-08-23T14:21:01.386Z,5.47
2018-08-23T14:23:30.026Z,5.57
2018-08-23T14:25:58.722Z,5.33
2018-08-23T14:28:27.355Z,5.57
2018-08-23T14:30:56.037Z,5.73
2018-08-23T14:33:24.648Z,5.27
2018-08-23T14:35:53.427Z,4.50
2018-08-23T14:38:22.078Z,6.10
2018-08-23T14:40:50.764Z,6.43
2018-08-23T14:43:19.461Z,6.33
2018-08-23T14:45:48.089Z,5.60
2018-08-23T14:48:18.227Z,4.87
2018-08-23T14:50:51.448Z,5.20
2018-08-23T14:53:26.797Z,5.40
2018-08-23T14:56:00.502Z,5.63
2018-08-23T14:58:29.460Z,5.07
2018-08-23T15:00:58.137Z,4.97
2018-08-23T15:03:26.944Z,6.77
2018-08-23T15:05:55.828Z,6.70
2018-08-23T15:08:24.453Z,4.70
2018-08-23T15:10:53.077Z,4.63
2018-08-23T15:13:21.725Z,5.33
2018-08-23T15:15:51.553Z,6.33
2018-08-23T15:18:21.256Z,5.23
2018-08-23T15:20:50.586Z,4.63
2018-08-23T15:23:19.238Z,4.50
2018-08-23T15:25:48.033Z,4.53
2018-08-23T15:28:16.628Z,5.00
2018-08-23T15:30:45.261Z,5.10
2018-08-23T15:33:14.062Z,6.23
2018-08-23T15:35:42.707Z,5.57
2018-08-23T15:38:11.344Z,6.83
2018-08-23T15:40:39.994Z,5.23
2018-08-23T15:43:08.621Z,5.13
2018-08-23T15:45:37.214Z,4.97
2018-08-23T15:48:05.924Z,6.57
2018-08-23T15:50:34.565Z,6.53
2018-08-23T15:53:03.181Z,5.23
2018-08-23T15:55:32.112Z,6.77
2018-08-23T15:58:00.548Z,5.17
2018-08-23T16:00:33.402Z,5.30
2018-08-23T16:03:02.413Z,4.83
2018-08-23T16:05:31.046Z,5.03
2018-08-23T16:07:59.731Z,5.17
2018-08-23T16:10:28.334Z,4.70
2018-08-23T16:12:56.962Z,5.27
2018-08-23T16:15:26.197Z,5.77
2018-08-23T16:18:00.146Z,5.00
2018-08-23T16:20:34.080Z,5.10
2018-08-23T16:23:02.741Z,5.40
2018-08-23T16:25:35.577Z,5.00
2018-08-23T16:28:04.205Z,5.10
2018-08-23T16:30:32.817Z,5.00
2018-08-23T16:33:01.477Z,5.20
2018-08-23T16:35:30.097Z,4.93
2018-08-23T16:37:58.706Z,4.83
2018-08-23T16:40:31.722Z,4.87
2018-08-23T16:43:01.993Z,5.83
2018-08-23T16:45:30.638Z,5.23
2018-08-23T16:47:59.280Z,5.17
2018-08-23T16:50:28.736Z,4.70
2018-08-23T16:52:57.446Z,4.23
2018-08-23T16:55:26.075Z,4.60
2018-08-23T16:57:54.729Z,6.10
2018-08-23T17:00:23.427Z,5.57
2018-08-23T17:02:52.068Z,4.50
2018-08-23T17:05:20.676Z,5.00
2018-08-23T17:07:49.424Z,5.50
2018-08-23T17:10:18.116Z,5.47
2018-08-23T17:12:46.749Z,6.20
2018-08-23T17:15:16.392Z,5.67
2018-08-23T17:17:48.539Z,5.03
2018-08-23T17:20:17.377Z,5.13
2018-08-23T17:22:46.021Z,5.77
2018-08-23T17:25:14.759Z,5.23
2018-08-23T17:27:43.345Z,5.30
2018-08-23T17:30:18.674Z,5.10
2018-08-23T17:32:47.325Z,6.10
2018-08-23T17:35:15.942Z,6.57
2018-08-23T17:37:44.659Z,7.27
2018-08-23T17:40:13.265Z,7.13
2018-08-23T17:42:43.445Z,6.93
2018-08-23T17:45:13.391Z,6.00
2018-08-23T17:47:42.033Z,6.17
2018-08-23T17:50:10.652Z,5.97
2018-08-23T17:52:39.344Z,5.97
2018-08-23T17:55:08.049Z,6.17
2018-08-23T17:57:36.689Z,6.07
2018-08-23T18:00:05.374Z,5.83
2018-08-23T18:02:34.043Z,6.97
2018-08-23T18:05:02.731Z,6.30
2018-08-23T18:07:31.379Z,5.77
2018-08-23T18:10:00.009Z,5.90
2018-08-23T18:12:28.685Z,5.70
2018-08-23T18:14:57.298Z,5.57
2018-08-23T18:17:26.014Z,5.90
2018-08-23T18:19:54.818Z,7.03
2018-08-23T18:22:23.456Z,5.87
2018-08-23T18:24:52.964Z,6.17
2018-08-23T18:27:21.615Z,5.97
2018-08-23T18:29:50.276Z,6.57
2018-08-23T18:32:18.932Z,6.90
2018-08-23T18:34:47.593Z,6.83
2018-08-23T18:37:16.226Z,6.30
2018-08-23T18:39:44.950Z,6.33
2018-08-23T18:42:13.557Z,6.63
2018-08-23T18:44:42.381Z,6.47
2018-08-23T18:47:11.037Z,5.90
2018-08-23T18:49:39.715Z,7.30
2018-08-23T18:52:08.349Z,6.87
2018-08-23T18:54:37.027Z,5.90
2018-08-23T18:57:05.813Z,6.57
2018-08-23T18:59:34.488Z,5.97
2018-08-23T19:02:03.789Z,6.10
2018-08-23T19:04:32.405Z,5.97
2018-08-23T19:07:01.435Z,6.80
2018-08-23T19:09:30.081Z,5.80
2018-08-23T19:11:58.740Z,6.83
2018-08-23T19:14:27.358Z,6.40
2018-08-23T19:17:01.501Z,6.60
2018-08-23T19:19:30.150Z,6.27
2018-08-23T19:21:58.779Z,7.43
2018-08-23T19:41:51.486Z,7.30
2018-08-23T19:44:20.169Z,7.10
2018-08-23T19:47:52.824Z,7.13
2018-08-23T19:50:21.750Z,7.57
2018-08-23T19:52:50.365Z,7.17
2018-08-23T19:55:19.021Z,8.00
2018-08-23T19:57:47.642Z,7.10
2018-08-23T20:00:16.376Z,7.27
2018-08-23T20:02:44.996Z,7.03
2018-08-23T20:05:19.101Z,7.63
2018-08-23T20:07:47.786Z,6.40
2018-08-23T20:10:16.429Z,7.93
2018-08-23T20:12:45.059Z,6.90
2018-08-23T20:15:13.809Z,8.10
2018-08-23T20:17:42.437Z,7.10
2018-08-23T20:20:11.147Z,7.33
2018-08-23T20:22:39.770Z,7.10
2018-08-23T20:25:08.391Z,7.57
2018-08-23T20:27:37.042Z,7.07
2018-08-23T20:30:05.955Z,7.10
2018-08-23T20:32:34.603Z,7.23
2018-08-23T20:35:03.298Z,6.87
2018-08-23T20:37:31.916Z,7.23
2018-08-23T20:40:00.691Z,7.20
2018-08-23T20:42:29.330Z,7.13
2018-08-23T20:44:58.007Z,7.60
2018-08-23T20:47:33.213Z,7.67
2018-08-23T20:50:01.856Z,8.07
2018-08-23T20:52:30.478Z,7.47
2018-08-23T20:54:59.175Z,7.07
2018-08-23T20:57:27.791Z,7.90
2018-08-23T20:59:56.496Z,7.70
2018-08-23T21:02:25.204Z,7.50
2018-08-23T21:04:53.870Z,9.33
2018-08-23T21:07:22.494Z,8.00
2018-08-23T21:09:51.141Z,7.57
2018-08-23T21:12:19.758Z,7.77
2018-08-23T21:14:48.378Z,7.23
2018-08-23T21:17:17.034Z,7.33
2018-08-23T21:19:45.665Z,9.20
2018-08-23T21:22:14.288Z,8.73
2018-08-23T21:24:42.953Z,8.23
2018-08-23T21:27:11.566Z,9.40
2018-08-23T21:29:40.173Z,7.67
2018-08-23T21:32:08.967Z,8.87
2018-08-23T21:34:37.589Z,7.80
2018-08-23T21:37:07.102Z,8.27
2018-08-23T21:39:35.767Z,7.67
2018-08-23T21:42:04.550Z,7.87
2018-08-23T21:44:33.317Z,7.57
2018-08-23T21:47:02.106Z,7.60
2018-08-23T21:49:30.825Z,7.37
2018-08-23T21:51:59.522Z,7.90
2018-08-23T21:54:28.277Z,8.07
2018-08-23T21:56:57.059Z,8.47
2018-08-23T21:59:25.771Z,7.90
2018-08-23T22:01:59.761Z,7.70
2018-08-23T22:04:28.573Z,8.13
2018-08-23T22:06:57.321Z,7.83
2018-08-23T22:09:26.071Z,8.07
2018-08-23T22:11:54.761Z,8.17
2018-08-23T22:14:23.506Z,7.93
2018-08-23T22:16:52.244Z,7.73
2018-08-23T22:19:20.970Z,7.40
2018-08-23T22:21:49.724Z,7.27
2018-08-23T22:24:18.445Z,7.60
2018-08-23T22:26:47.329Z,8.20
2018-08-23T22:29:15.895Z,7.20
2018-08-23T22:31:44.633Z,7.10
2018-08-23T22:34:13.345Z,7.50
2018-08-23T22:36:42.149Z,8.13
2018-08-23T22:39:10.883Z,7.93
2018-08-23T22:41:39.614Z,8.30
2018-08-23T22:44:08.353Z,7.90
2018-08-23T22:46:37.131Z,7.73
2018-08-23T22:49:05.882Z,5.53
2018-08-23T22:51:34.613Z,5.83
2018-08-23T22:54:03.340Z,5.03
2018-08-23T22:56:32.088Z,5.90
2018-08-23T22:59:00.790Z,5.63
2018-08-23T23:01:29.502Z,5.20
2018-08-23T23:04:03.609Z,4.60
2018-08-23T23:06:32.342Z,5.37
2018-08-23T23:09:01.115Z,5.33
2018-08-23T23:11:30.245Z,5.07
2018-08-23T23:13:58.985Z,5.03
2018-08-23T23:16:29.280Z,5.77
2018-08-23T23:18:58.065Z,4.87
2018-08-23T23:21:26.757Z,5.33
2018-08-23T23:23:55.468Z,5.07
2018-08-23T23:26:24.213Z,5.13
2018-08-23T23:28:52.937Z,5.63
2018-08-23T23:31:21.662Z,5.20
2018-08-23T23:33:50.405Z,5.87
2018-08-23T23:36:19.129Z,4.90
2018-08-23T23:38:47.852Z,4.63
2018-08-23T23:41:16.607Z,5.23
2018-08-23T23:43:45.342Z,5.20
2018-08-23T23:46:14.080Z,5.37
2018-08-23T23:48:42.809Z,5.43
2018-08-23T23:51:11.529Z,5.87
2018-08-23T23:53:40.232Z,5.97
2018-08-23T23:56:08.960Z,5.90
2018-08-23T23:58:37.684Z,6.30
